Time;durP1;ratioP1;P1;durP2;ratioP2;P2;SDS_P1;SDS_P2;PMS_P1;PMS_P2;Temp;Humidity;BMP_temperature;BMP_pressure;BME280_temperature;BME280_humidity;BME280_pressure;Samples;Min_cycle;Max_cycle;Signal;HPM_P1;HPM_P2
2022/09/25 00:00:42;;;;;;;6.35;3.45;;;15.00;72.10;;;;;;5077128;28;20036;-77
2022/09/25 00:03:08;;;;;;;4.75;3.60;;;15.00;72.20;;;;;;5053761;28;20033;-77
2022/09/25 00:05:37;;;;;;;7.75;4.10;;;15.00;72.40;;;;;;5073682;28;20040;-76
2022/09/25 00:08:03;;;;;;;5.22;3.50;;;14.90;72.50;;;;;;5042723;28;20036;-77
2022/09/25 00:10:29;;;;;;;4.38;3.13;;;14.90;72.40;;;;;;5048129;28;20469;-77
2022/09/25 00:12:55;;;;;;;3.95;3.45;;;14.90;72.50;;;;;;5043459;28;20142;-78
2022/09/25 00:15:20;;;;;;;5.07;3.45;;;14.90;72.70;;;;;;5057351;28;20032;-77
2022/09/25 00:17:46;;;;;;;5.78;3.65;;;14.90;72.70;;;;;;5055429;28;20511;-77
2022/09/25 00:20:13;;;;;;;4.95;3.28;;;14.90;72.80;;;;;;5043694;28;20075;-76
2022/09/25 00:22:38;;;;;;;5.07;3.53;;;14.80;72.80;;;;;;5076766;28;20043;-76
2022/09/25 00:25:04;;;;;;;6.10;3.63;;;14.80;72.90;;;;;;5060146;28;20028;-77
2022/09/25 00:27:30;;;;;;;4.10;3.17;;;14.80;73.00;;;;;;5078289;28;20036;-77
2022/09/25 00:29:55;;;;;;;3.45;3.10;;;14.80;73.10;;;;;;5063091;28;20554;-78
2022/09/25 00:32:21;;;;;;;4.95;3.95;;;14.80;73.20;;;;;;5045311;28;20476;-77
2022/09/25 00:34:46;;;;;;;3.80;3.15;;;14.80;73.30;;;;;;5058899;28;20037;-77
2022/09/25 00:37:12;;;;;;;4.07;3.67;;;14.70;73.30;;;;;;5095928;28;20516;-78
2022/09/25 00:39:37;;;;;;;4.43;3.38;;;14.70;73.30;;;;;;5079978;28;20032;-77
2022/09/25 00:42:03;;;;;;;3.40;3.10;;;14.80;73.50;;;;;;5065972;28;20162;-77
2022/09/25 00:44:55;;;;;;;3.80;3.15;;;14.70;73.50;;;;;;5065351;28;20044;-77
2022/09/25 00:47:31;;;;;;;4.00;3.58;;;14.70;73.90;;;;;;5080194;28;20040;-78
2022/09/25 00:49:57;;;;;;;3.88;3.53;;;14.70;73.70;;;;;;5062614;28;20142;-77
2022/09/25 00:52:22;;;;;;;4.15;2.97;;;14.70;73.60;;;;;;5048765;28;20075;-77
2022/09/25 00:54:55;;;;;;;8.15;3.30;;;14.60;73.80;;;;;;5064134;28;20036;-77
2022/09/25 00:57:22;;;;;;;6.47;3.70;;;14.60;73.90;;;;;;5061897;28;20031;-77
2022/09/25 00:59:50;;;;;;;6.93;3.35;;;14.60;73.80;;;;;;5066885;28;20050;-77
2022/09/25 01:02:21;;;;;;;4.18;3.47;;;14.60;74.00;;;;;;5048330;28;20121;-77
2022/09/25 01:04:46;;;;;;;4.63;3.55;;;14.60;74.20;;;;;;5063287;28;20918;-78
2022/09/25 01:07:12;;;;;;;6.22;3.58;;;14.60;74.00;;;;;;5045291;28;20048;-77
2022/09/25 01:09:37;;;;;;;6.32;3.40;;;14.60;74.10;;;;;;5047449;28;20086;-76
2022/09/25 01:12:03;;;;;;;4.90;3.22;;;14.60;74.30;;;;;;5060967;28;20036;-76
2022/09/25 01:14:32;;;;;;;3.40;3.08;;;14.50;74.20;;;;;;5078858;28;20064;-77
2022/09/25 01:17:12;;;;;;;4.97;3.63;;;14.60;74.50;;;;;;5063111;28;20036;-76
2022/09/25 01:20:25;;;;;;;4.50;3.35;;;14.50;74.70;;;;;;5065328;28;20032;-77
2022/09/25 01:22:54;;;;;;;4.63;3.85;;;14.50;75.00;;;;;;5042531;28;20036;-76
2022/09/25 01:25:43;;;;;;;5.43;3.97;;;14.50;74.60;;;;;;5070863;28;20032;-77
2022/09/25 01:28:20;;;;;;;5.85;3.38;;;14.50;75.10;;;;;;5088698;28;20029;-77
2022/09/25 01:30:47;;;;;;;5.60;4.03;;;14.50;75.00;;;;;;5048698;28;20432;-77
2022/09/25 01:33:15;;;;;;;4.75;3.88;;;14.50;75.80;;;;;;5026052;28;20340;-78
2022/09/25 01:35:49;;;;;;;5.18;3.53;;;14.40;74.90;;;;;;5077726;28;20673;-77
2022/09/25 01:38:30;;;;;;;7.65;3.97;;;14.40;75.20;;;;;;5051729;28;20040;-77
2022/09/25 01:41:01;;;;;;;5.03;3.92;;;14.40;75.40;;;;;;5027000;28;20044;-77
2022/09/25 01:43:38;;;;;;;3.90;3.50;;;14.40;75.20;;;;;;5034410;28;20025;-76
2022/09/25 01:46:17;;;;;;;4.75;3.58;;;14.40;75.40;;;;;;5041464;28;20048;-77
2022/09/25 01:48:43;;;;;;;4.43;3.72;;;14.40;75.50;;;;;;5056537;28;20040;-76
2022/09/25 01:51:28;;;;;;;7.70;4.10;;;14.40;75.40;;;;;;5043896;28;20040;-77
2022/09/25 01:53:55;;;;;;;5.03;3.65;;;14.40;75.90;;;;;;5071118;28;20050;-75
2022/09/25 01:56:32;;;;;;;5.18;3.92;;;14.40;75.40;;;;;;5025235;28;20516;-77
2022/09/25 01:59:19;;;;;;;9.30;4.30;;;14.40;75.70;;;;;;5045117;28;20536;-77
2022/09/25 02:01:46;;;;;;;4.05;3.42;;;14.40;75.90;;;;;;5055956;28;20038;-76
2022/09/25 02:04:21;;;;;;;3.90;3.55;;;14.40;75.80;;;;;;5068878;28;20033;-77
2022/09/25 02:06:48;;;;;;;5.28;3.42;;;14.40;75.90;;;;;;5038442;28;20060;-77
2022/09/25 02:09:33;;;;;;;5.68;3.42;;;14.30;76.00;;;;;;5040643;28;20084;-77
2022/09/25 02:12:01;;;;;;;7.53;3.30;;;14.30;76.30;;;;;;5054107;28;20032;-77
2022/09/25 02:14:31;;;;;;;10.13;3.63;;;14.30;76.00;;;;;;5056450;28;20028;-77
2022/09/25 02:16:57;;;;;;;7.80;3.47;;;14.30;76.10;;;;;;5057665;28;20427;-77
2022/09/25 02:22:14;;;;;;;5.53;3.88;;;14.30;76.30;;;;;;5034160;28;20036;-76
2022/09/25 02:24:46;;;;;;;7.00;3.80;;;14.30;76.40;;;;;;5043772;28;20058;-77
2022/09/25 02:27:11;;;;;;;6.22;3.72;;;14.30;76.60;;;;;;5073408;28;20131;-77
2022/09/25 02:29:37;;;;;;;3.85;3.40;;;14.30;76.50;;;;;;5020966;28;20044;-78
2022/09/25 02:32:05;;;;;;;4.43;3.42;;;14.30;76.50;;;;;;5066463;28;20043;-77
2022/09/25 02:34:31;;;;;;;6.20;4.00;;;14.30;76.80;;;;;;5017841;28;20060;-77
2022/09/25 02:36:57;;;;;;;4.43;3.92;;;14.30;76.80;;;;;;5053722;28;20540;-77
2022/09/25 02:39:23;;;;;;;5.50;4.20;;;14.30;76.70;;;;;;5050858;28;20040;-77
2022/09/25 02:42:08;;;;;;;4.43;3.80;;;14.20;76.90;;;;;;5051359;28;20029;-77
2022/09/25 02:44:48;;;;;;;5.43;3.92;;;14.30;77.70;;;;;;5038536;28;20071;-77
2022/09/25 02:47:39;;;;;;;4.97;3.53;;;14.20;77.30;;;;;;5034450;28;20036;-77
2022/09/25 02:50:09;;;;;;;7.40;3.60;;;14.20;77.40;;;;;;5044861;28;20764;-77
2022/09/25 02:52:57;;;;;;;4.03;3.63;;;14.20;77.40;;;;;;5048628;28;20052;-76
2022/09/25 02:55:41;;;;;;;3.72;3.35;;;14.20;77.70;;;;;;5057596;28;20039;-77
2022/09/25 02:58:23;;;;;;;4.40;3.35;;;14.20;77.30;;;;;;5063758;28;20040;-77
2022/09/25 03:00:49;;;;;;;;;;;14.20;77.60;;;;;;5070319;28;20029;-77
2022/09/25 03:03:15;;;;;;;5.78;3.15;;;14.20;77.20;;;;;;5087073;28;19966;-78
2022/09/25 03:05:41;;;;;;;3.67;3.38;;;14.20;77.10;;;;;;5026957;28;20094;-77
2022/09/25 03:10:52;;;;;;;5.10;3.72;;;14.20;77.40;;;;;;5040115;28;20032;-77
2022/09/25 03:13:20;;;;;;;3.85;3.22;;;14.20;77.50;;;;;;5056290;28;20043;-76
2022/09/25 03:15:49;;;;;;;3.78;3.47;;;14.20;77.70;;;;;;5042866;28;20040;-77
2022/09/25 03:18:15;;;;;;;4.68;3.88;;;14.20;77.80;;;;;;5039671;28;20582;-76
2022/09/25 03:20:41;;;;;;;5.38;3.20;;;14.20;77.80;;;;;;5048738;28;20524;-78
2022/09/25 03:23:07;;;;;;;4.47;3.50;;;14.20;77.90;;;;;;5053204;28;20032;-77
2022/09/25 03:25:33;;;;;;;4.32;3.92;;;14.20;77.90;;;;;;5038991;28;20048;-76
2022/09/25 03:27:58;;;;;;;3.63;3.20;;;14.20;78.00;;;;;;5041717;28;20037;-78
2022/09/25 03:30:24;;;;;;;5.40;3.70;;;14.10;78.00;;;;;;5056075;28;20710;-78
2022/09/25 03:32:49;;;;;;;3.97;3.58;;;14.10;78.10;;;;;;5037407;28;20044;-78
2022/09/25 03:35:15;;;;;;;4.53;3.70;;;14.20;78.20;;;;;;5038618;28;20068;-77
2022/09/25 03:37:40;;;;;;;5.65;3.75;;;14.10;78.10;;;;;;5068009;28;20081;-77
2022/09/25 03:40:06;;;;;;;4.82;3.75;;;14.10;78.20;;;;;;5073160;28;20055;-78
2022/09/25 03:42:32;;;;;;;5.25;3.53;;;14.10;78.30;;;;;;5067882;28;20118;-78
2022/09/25 03:44:57;;;;;;;7.65;4.00;;;14.10;78.30;;;;;;5068994;28;20093;-76
2022/09/25 03:47:23;;;;;;;5.15;3.72;;;14.10;78.40;;;;;;5054407;28;20066;-78
2022/09/25 03:49:48;;;;;;;4.97;3.58;;;14.10;78.50;;;;;;5072044;28;20059;-78
2022/09/25 03:52:14;;;;;;;4.00;3.60;;;14.10;78.50;;;;;;5041061;28;20102;-77
2022/09/25 03:54:40;;;;;;;7.65;4.28;;;14.10;78.60;;;;;;5070400;28;20124;-76
2022/09/25 03:57:05;;;;;;;5.68;3.47;;;14.10;78.70;;;;;;5042473;28;20064;-77
2022/09/25 03:59:31;;;;;;;4.95;3.50;;;14.10;78.80;;;;;;5057008;28;20174;-77
2022/09/25 04:01:57;;;;;;;4.53;3.58;;;14.10;78.90;;;;;;5056155;28;20043;-77
2022/09/25 04:04:22;;;;;;;4.60;4.13;;;14.10;78.90;;;;;;5057537;28;20079;-77
2022/09/25 04:06:48;;;;;;;5.03;3.75;;;14.10;78.80;;;;;;5026249;28;20164;-76
2022/09/25 04:09:13;;;;;;;4.47;3.60;;;14.10;78.80;;;;;;5071681;28;20029;-77
2022/09/25 04:11:39;;;;;;;4.53;3.50;;;14.10;78.90;;;;;;5043622;28;20061;-76
2022/09/25 04:14:04;;;;;;;4.00;3.50;;;14.10;79.10;;;;;;5072260;28;20476;-76
2022/09/25 04:16:30;;;;;;;3.75;3.35;;;14.10;79.10;;;;;;5055802;28;20402;-78
2022/09/25 04:18:56;;;;;;;6.07;3.58;;;14.10;79.10;;;;;;5050357;28;20494;-76
2022/09/25 04:21:21;;;;;;;5.40;4.13;;;14.10;79.30;;;;;;5059124;28;20033;-76
2022/09/25 04:24:47;;;;;;;3.90;3.50;;;14.10;79.20;;;;;;5042039;28;20047;-77
2022/09/25 04:26:33;;;;;;;7.40;3.50;;;14.10;79.20;;;;;;5046723;28;20044;-77
2022/09/25 04:29:00;;;;;;;5.78;3.72;;;14.00;79.20;;;;;;5045138;28;20043;-76
2022/09/25 04:31:26;;;;;;;4.97;3.97;;;14.10;79.30;;;;;;5039241;28;20040;-75
2022/09/25 04:33:52;;;;;;;3.80;3.40;;;14.10;79.30;;;;;;5076333;28;20042;-76
2022/09/25 04:36:18;;;;;;;6.78;4.70;;;14.10;79.60;;;;;;5036809;28;20063;-75
2022/09/25 04:38:43;;;;;;;4.35;3.95;;;14.00;79.60;;;;;;5042192;28;20039;-75
2022/09/25 04:41:09;;;;;;;5.13;4.57;;;14.00;79.60;;;;;;5049493;28;20093;-76
2022/09/25 04:43:34;;;;;;;4.30;3.90;;;14.00;79.80;;;;;;5027139;28;20052;-76
2022/09/25 04:46:04;;;;;;;6.13;4.15;;;14.00;80.00;;;;;;5047083;28;20036;-76
2022/09/25 04:48:30;;;;;;;5.57;4.97;;;14.00;80.00;;;;;;5039891;28;20532;-75
2022/09/25 04:50:57;;;;;;;5.50;3.80;;;14.00;80.00;;;;;;5043619;28;20044;-77
2022/09/25 04:53:23;;;;;;;4.85;3.70;;;14.00;80.10;;;;;;5074817;28;20396;-76
2022/09/25 04:55:48;;;;;;;5.18;4.00;;;14.00;80.30;;;;;;5070914;28;20037;-76
2022/09/25 04:58:14;;;;;;;6.88;4.82;;;14.00;80.30;;;;;;5052953;28;20840;-76
2022/09/25 05:00:41;;;;;;;5.40;4.07;;;14.00;80.40;;;;;;5057737;28;20055;-75
2022/09/25 05:03:06;;;;;;;8.55;4.40;;;14.00;80.50;;;;;;5070165;28;20502;-77
2022/09/25 05:05:32;;;;;;;6.75;4.43;;;14.00;80.50;;;;;;5052930;28;20047;-77
2022/09/25 05:07:59;;;;;;;6.10;4.35;;;14.00;80.50;;;;;;5023939;28;20040;-76
2022/09/25 05:10:29;;;;;;;4.47;3.70;;;14.00;80.50;;;;;;5030567;28;20424;-75
2022/09/25 05:12:56;;;;;;;5.53;4.13;;;14.00;80.70;;;;;;5053625;28;20032;-75
2022/09/25 05:15:21;;;;;;;6.53;3.83;;;14.00;80.60;;;;;;5088667;28;20040;-77
2022/09/25 05:17:47;;;;;;;5.97;4.32;;;14.00;80.60;;;;;;5046427;28;20500;-77
2022/09/25 05:20:13;;;;;;;8.07;4.30;;;14.00;80.60;;;;;;5042334;28;20059;-76
2022/09/25 05:22:38;;;;;;;4.68;3.88;;;13.90;80.70;;;;;;5057125;28;20037;-77
2022/09/25 05:25:04;;;;;;;5.07;4.22;;;14.00;80.80;;;;;;5060706;28;20127;-75
2022/09/25 05:27:33;;;;;;;5.00;4.13;;;14.00;80.80;;;;;;5056537;28;20519;-76
2022/09/25 05:29:59;;;;;;;7.45;4.30;;;14.00;80.80;;;;;;5073167;28;20032;-76
2022/09/25 05:32:25;;;;;;;7.72;4.28;;;13.90;80.70;;;;;;5053175;28;20397;-75
2022/09/25 05:34:50;;;;;;;4.95;4.07;;;14.00;80.90;;;;;;5054421;28;20033;-75
2022/09/25 05:37:16;;;;;;;3.95;3.55;;;13.90;80.80;;;;;;5048483;28;20408;-76
2022/09/25 05:39:41;;;;;;;6.10;4.43;;;13.90;80.80;;;;;;5078102;28;20032;-76
2022/09/25 05:42:07;;;;;;;5.85;4.70;;;13.90;80.80;;;;;;5092313;28;20044;-76
2022/09/25 05:44:33;;;;;;;5.32;3.83;;;13.90;80.90;;;;;;5068988;28;20036;-76
2022/09/25 05:46:58;;;;;;;4.85;4.15;;;13.90;81.00;;;;;;5038893;28;20039;-77
2022/09/25 05:49:24;;;;;;;6.68;4.60;;;13.90;81.00;;;;;;5067762;28;20127;-76
2022/09/25 05:51:49;;;;;;;6.00;4.30;;;13.90;81.80;;;;;;5068228;28;20083;-77
2022/09/25 05:54:15;;;;;;;5.80;4.10;;;13.90;81.10;;;;;;5054542;28;20052;-77
2022/09/25 05:56:40;;;;;;;6.20;4.45;;;13.90;81.00;;;;;;5069581;28;20071;-78
2022/09/25 05:59:06;;;;;;;6.80;4.65;;;13.90;81.20;;;;;;5066844;28;20068;-78
2022/09/25 06:01:32;;;;;;;6.35;4.63;;;13.90;81.10;;;;;;5068245;28;20036;-77
2022/09/25 06:03:57;;;;;;;6.40;4.30;;;13.90;81.30;;;;;;5070718;28;20516;-77
2022/09/25 06:06:23;;;;;;;6.57;4.45;;;13.80;82.00;;;;;;5071826;28;20035;-76
2022/09/25 06:08:48;;;;;;;7.28;4.20;;;13.90;81.40;;;;;;5069838;28;20043;-77
2022/09/25 06:11:14;;;;;;;4.30;3.90;;;13.80;81.30;;;;;;5067794;28;20509;-76
2022/09/25 06:13:41;;;;;;;7.85;4.55;;;13.90;81.40;;;;;;5068325;28;20492;-75
2022/09/25 06:16:18;;;;;;;5.55;4.50;;;13.80;81.40;;;;;;5058311;28;20073;-75
2022/09/25 06:18:43;;;;;;;12.32;9.73;;;13.80;81.50;;;;;;5055950;28;20098;-76
2022/09/25 06:21:09;;;;;;;9.73;7.13;;;13.80;81.40;;;;;;5070241;28;20044;-75
2022/09/25 06:23:35;;;;;;;8.45;5.70;;;13.80;81.40;;;;;;5037469;28;20383;-75
2022/09/25 06:26:01;;;;;;;5.20;4.63;;;13.80;81.50;;;;;;5072755;28;20500;-75
2022/09/25 06:28:28;;;;;;;6.75;4.78;;;13.80;81.60;;;;;;5071584;28;20605;-76
2022/09/25 06:30:54;;;;;;;7.32;5.28;;;13.80;81.50;;;;;;5074407;28;20048;-75
2022/09/25 06:33:19;;;;;;;7.50;6.20;;;13.80;81.60;;;;;;5069630;28;20160;-76
2022/09/25 06:35:46;;;;;;;7.78;5.72;;;13.80;81.60;;;;;;5053452;28;20029;-76
2022/09/25 06:38:12;;;;;;;5.90;4.90;;;13.80;81.70;;;;;;5068413;28;20039;-75
2022/09/25 06:40:39;;;;;;;5.93;4.93;;;13.80;81.70;;;;;;5068400;28;20041;-75
2022/09/25 06:43:05;;;;;;;38.67;28.25;;;13.80;81.70;;;;;;5059480;28;20121;-76
2022/09/25 06:45:32;;;;;;;26.60;21.13;;;13.80;81.70;;;;;;5072382;28;20047;-76
2022/09/25 06:48:08;;;;;;;17.13;12.38;;;13.80;81.80;;;;;;5059267;28;20067;-76
2022/09/25 06:50:40;;;;;;;15.45;10.40;;;13.80;81.90;;;;;;5055494;28;20048;-76
2022/09/25 06:53:06;;;;;;;40.72;23.55;;;13.80;81.90;;;;;;5052276;28;20373;-75
2022/09/25 06:55:31;;;;;;;24.23;16.15;;;13.80;81.80;;;;;;5072550;28;20420;-77
2022/09/25 06:57:57;;;;;;;101.28;45.80;;;13.80;81.80;;;;;;5046938;28;20128;-76
2022/09/25 07:00:23;;;;;;;100.97;46.95;;;13.80;82.20;;;;;;5067895;28;20036;-76
2022/09/25 07:05:33;;;;;;;26.58;16.48;;;13.80;82.00;;;;;;5071969;28;20051;-76
2022/09/25 07:07:59;;;;;;;23.98;16.52;;;13.80;82.00;;;;;;5074327;28;20032;-77
2022/09/25 07:10:25;;;;;;;19.73;13.85;;;13.80;82.00;;;;;;5053130;28;20123;-76
2022/09/25 07:12:50;;;;;;;20.98;15.85;;;13.80;82.00;;;;;;5052975;28;20493;-77
2022/09/25 07:15:17;;;;;;;18.23;12.73;;;13.80;82.10;;;;;;5051377;28;20591;-75
2022/09/25 07:17:44;;;;;;;12.25;8.48;;;13.80;82.20;;;;;;5053701;28;20040;-75
2022/09/25 07:20:14;;;;;;;10.38;7.30;;;13.80;82.20;;;;;;5065646;28;20045;-75
2022/09/25 07:22:40;;;;;;;9.68;6.88;;;13.80;82.20;;;;;;5043901;28;20044;-77
2022/09/25 07:25:06;;;;;;;8.15;5.93;;;13.80;82.20;;;;;;5066919;28;20048;-76
2022/09/25 07:27:31;;;;;;;6.15;5.05;;;13.80;82.30;;;;;;5051511;28;20120;-76
2022/09/25 07:29:57;;;;;;;6.10;5.50;;;13.80;82.30;;;;;;5070762;28;20143;-76
2022/09/25 07:32:22;;;;;;;7.90;5.78;;;13.80;82.20;;;;;;5059310;28;20044;-76
2022/09/25 07:34:49;;;;;;;6.80;5.43;;;13.80;83.00;;;;;;5075033;28;20128;-77
2022/09/25 07:37:15;;;;;;;6.93;6.22;;;13.80;82.20;;;;;;5072414;28;20026;-76
2022/09/25 07:39:41;;;;;;;7.65;6.35;;;13.80;82.30;;;;;;5073815;28;20036;-75
2022/09/25 07:42:07;;;;;;;6.88;5.72;;;13.90;82.30;;;;;;5073315;28;20043;-76
2022/09/25 07:44:33;;;;;;;9.60;6.80;;;13.90;82.40;;;;;;5068344;28;20511;-75
2022/09/25 07:47:00;;;;;;;8.85;5.90;;;13.90;82.40;;;;;;5070610;28;20039;-76
2022/09/25 07:49:27;;;;;;;7.28;5.32;;;13.90;82.40;;;;;;5067774;28;20488;-76
2022/09/25 07:51:53;;;;;;;6.10;5.35;;;13.90;82.50;;;;;;5055024;28;20125;-76
2022/09/25 07:54:18;;;;;;;8.00;5.45;;;13.90;82.40;;;;;;5070247;28;20039;-77
2022/09/25 07:56:44;;;;;;;5.63;5.07;;;13.90;82.60;;;;;;5069780;28;20043;-76
2022/09/25 07:59:09;;;;;;;6.97;5.10;;;13.90;82.40;;;;;;5053774;28;20028;-76
2022/09/25 08:01:35;;;;;;;6.07;5.22;;;13.90;82.40;;;;;;5043116;28;22786;-78
2022/09/25 08:04:01;;;;;;;6.53;5.03;;;13.90;82.60;;;;;;5057030;28;20035;-76
2022/09/25 08:06:26;;;;;;;7.40;5.40;;;14.00;82.60;;;;;;5071629;28;20032;-76
2022/09/25 08:08:52;;;;;;;5.72;4.82;;;14.00;82.50;;;;;;5071094;28;20024;-77
2022/09/25 08:11:17;;;;;;;5.78;4.78;;;13.90;82.50;;;;;;5070317;28;20657;-76
2022/09/25 08:13:43;;;;;;;5.18;4.68;;;14.00;82.50;;;;;;5073900;28;20641;-78
2022/09/25 08:16:13;;;;;;;5.93;4.43;;;13.90;82.50;;;;;;5070724;28;20029;-76
2022/09/25 08:18:44;;;;;;;5.25;4.75;;;14.00;82.60;;;;;;5060337;28;20682;-77
2022/09/25 08:21:09;;;;;;;5.63;4.68;;;14.00;82.60;;;;;;5070711;28;20439;-76
2022/09/25 08:23:35;;;;;;;6.75;5.10;;;14.00;82.60;;;;;;5074206;28;20032;-77
2022/09/25 08:26:00;;;;;;;5.63;4.95;;;14.00;82.50;;;;;;5067092;28;20403;-77
2022/09/25 08:28:27;;;;;;;14.45;10.18;;;14.00;82.40;;;;;;5054406;28;20048;-76
2022/09/25 08:30:52;;;;;;;10.02;7.53;;;14.10;82.60;;;;;;5057185;28;21542;-77
2022/09/25 08:33:18;;;;;;;11.13;7.30;;;14.10;82.60;;;;;;5075040;28;20047;-76
2022/09/25 08:35:52;;;;;;;7.50;6.13;;;14.10;82.60;;;;;;5073390;28;20036;-76
2022/09/25 08:38:18;;;;;;;7.45;5.95;;;14.10;82.60;;;;;;5071527;28;20040;-76
2022/09/25 08:40:57;;;;;;;6.50;5.47;;;14.10;82.60;;;;;;5067593;28;20043;-77
2022/09/25 08:43:23;;;;;;;8.50;5.75;;;14.10;82.60;;;;;;5070415;28;20044;-76
2022/09/25 08:49:00;;;;;;;7.32;6.03;;;14.10;82.50;;;;;;5068473;28;20121;-76
2022/09/25 08:51:34;;;;;;;6.72;5.28;;;14.10;82.60;;;;;;5049728;28;20045;-77
2022/09/25 08:53:59;;;;;;;8.90;6.28;;;14.10;82.60;;;;;;5034843;28;20037;-75
2022/09/25 08:56:28;;;;;;;6.45;5.22;;;14.10;82.50;;;;;;5034267;28;20111;-76
2022/09/25 08:59:08;;;;;;;5.90;4.53;;;14.10;82.60;;;;;;5026111;28;20123;-77
2022/09/25 09:01:40;;;;;;;6.97;5.88;;;14.20;82.90;;;;;;5023826;28;20064;-77
2022/09/25 09:04:34;;;;;;;7.00;5.50;;;14.20;82.70;;;;;;5071362;28;20031;-78
2022/09/25 09:07:10;;;;;;;7.95;5.78;;;14.20;83.00;;;;;;5086835;28;20120;-78
2022/09/25 09:09:40;;;;;;;7.05;5.53;;;14.20;82.80;;;;;;5071445;28;20032;-77
2022/09/25 09:12:12;;;;;;;5.68;4.57;;;14.30;82.80;;;;;;5042852;28;20032;-78
2022/09/25 09:14:48;;;;;;;5.95;5.03;;;14.30;82.70;;;;;;5053150;28;20071;-78
2022/09/25 09:17:20;;;;;;;5.68;5.07;;;14.30;82.70;;;;;;5037470;28;20066;-77
2022/09/25 09:19:58;;;;;;;6.20;5.32;;;14.30;82.60;;;;;;5083998;28;20078;-78
2022/09/25 09:22:30;;;;;;;6.55;4.55;;;14.40;82.60;;;;;;5057586;28;20036;-76
2022/09/25 09:25:20;;;;;;;5.63;5.03;;;14.40;82.70;;;;;;5056651;28;20763;-77
2022/09/25 09:27:57;;;;;;;7.95;4.90;;;14.40;82.80;;;;;;5057602;28;20102;-77
2022/09/25 09:30:33;;;;;;;5.40;4.55;;;14.40;82.60;;;;;;5054723;28;20043;-76
2022/09/25 09:33:33;;;;;;;8.13;7.03;;;14.50;82.70;;;;;;5051653;28;20062;-78
2022/09/25 09:36:23;;;;;;;6.10;5.50;;;14.50;83.00;;;;;;5055438;28;20573;-77
2022/09/25 09:39:12;;;;;;;6.50;5.38;;;14.60;82.70;;;;;;5056116;28;20032;-77
2022/09/25 09:42:03;;;;;;;5.05;4.40;;;14.60;83.10;;;;;;5032116;28;20044;-73
2022/09/25 09:44:28;;;;;;;4.80;4.40;;;14.60;82.80;;;;;;5066255;28;20039;-76
2022/09/25 09:47:33;;;;;;;4.35;3.92;;;14.70;82.50;;;;;;5069013;28;20040;-77
2022/09/25 09:50:24;;;;;;;3.92;3.53;;;14.70;82.60;;;;;;5048688;28;20024;-77
2022/09/25 09:53:00;;;;;;;4.55;4.15;;;14.70;82.40;;;;;;5071195;28;20044;-77
2022/09/25 09:55:37;;;;;;;4.50;3.83;;;14.70;82.30;;;;;;5049761;28;20055;-77
2022/09/25 09:58:07;;;;;;;4.20;3.80;;;14.70;82.20;;;;;;5030170;28;20028;-76
2022/09/25 10:00:33;;;;;;;4.80;4.30;;;14.80;82.20;;;;;;5068731;28;20111;-78
2022/09/25 10:03:15;;;;;;;5.60;3.92;;;14.80;82.30;;;;;;5052197;28;20131;-78
2022/09/25 10:05:46;;;;;;;4.15;3.35;;;14.80;82.30;;;;;;5039477;28;20036;-76
2022/09/25 10:08:11;;;;;;;4.53;3.80;;;14.80;82.30;;;;;;5053028;28;20036;-76
2022/09/25 10:10:39;;;;;;;4.18;3.78;;;14.80;82.00;;;;;;5037302;28;20047;-76
2022/09/25 10:13:09;;;;;;;5.68;3.67;;;14.80;82.00;;;;;;5033841;28;20036;-77
2022/09/25 10:15:40;;;;;;;7.37;3.57;;;14.80;82.00;;;;;;5055892;28;20051;-75
2022/09/25 10:18:06;;;;;;;4.00;3.45;;;14.90;81.80;;;;;;5069709;28;20033;-73
2022/09/25 10:20:57;;;;;;;3.78;3.47;;;14.90;81.70;;;;;;5054570;28;20059;-72
2022/09/25 10:23:37;;;;;;;4.33;3.40;;;14.90;81.70;;;;;;5039851;28;20040;-76
2022/09/25 10:26:05;;;;;;;3.72;3.42;;;14.90;81.50;;;;;;5064315;28;20052;-76
2022/09/25 10:28:33;;;;;;;4.22;3.83;;;14.90;81.60;;;;;;5040120;28;20039;-78
2022/09/25 10:30:58;;;;;;;4.38;3.88;;;14.90;81.60;;;;;;5057488;28;20040;-76
2022/09/25 10:33:25;;;;;;;4.75;4.10;;;14.90;81.70;;;;;;5054186;28;20040;-77
2022/09/25 10:35:53;;;;;;;4.03;3.63;;;15.00;81.70;;;;;;5052572;28;20044;-76
2022/09/25 10:38:30;;;;;;;3.72;3.42;;;15.00;81.70;;;;;;5053536;28;20043;-77
2022/09/25 10:41:04;;;;;;;4.53;3.45;;;15.10;81.90;;;;;;5055215;28;20089;-77
2022/09/25 10:43:29;;;;;;;3.38;2.95;;;15.10;81.80;;;;;;5088027;28;20067;-77
2022/09/25 10:46:04;;;;;;;3.67;3.20;;;15.10;81.70;;;;;;5038565;28;20044;-77
2022/09/25 10:51:18;;;;;;;3.28;2.97;;;15.20;81.60;;;;;;5056787;28;20127;-76
2022/09/25 10:53:45;;;;;;;5.78;3.97;;;15.20;81.60;;;;;;5043259;28;20094;-76
2022/09/25 10:56:15;;;;;;;4.10;3.03;;;15.30;81.60;;;;;;5060561;28;20079;-78
2022/09/25 10:58:55;;;;;;;3.95;3.58;;;15.30;81.70;;;;;;5040733;28;20435;-78
2022/09/25 11:01:37;;;;;;;3.40;3.08;;;15.30;82.40;;;;;;5053965;28;20047;-77
2022/09/25 11:04:05;;;;;;;4.07;3.45;;;15.40;81.70;;;;;;5053377;28;20127;-76
2022/09/25 11:06:33;;;;;;;3.42;3.13;;;15.50;81.70;;;;;;5057586;28;20024;-77
2022/09/25 11:09:11;;;;;;;4.03;3.40;;;15.50;81.80;;;;;;5056317;28;20051;-77
2022/09/25 11:11:38;;;;;;;3.88;2.88;;;15.50;82.10;;;;;;5058461;28;20028;-76
2022/09/25 11:14:04;;;;;;;4.45;3.58;;;15.60;81.80;;;;;;5055937;28;20754;-78
2022/09/25 11:16:49;;;;;;;3.85;3.45;;;15.70;81.90;;;;;;5057122;28;20032;-77
2022/09/25 11:19:18;;;;;;;3.15;2.70;;;15.80;82.50;;;;;;5074220;28;20060;-77
2022/09/25 11:21:56;;;;;;;3.50;3.20;;;15.90;81.90;;;;;;5075592;28;20081;-78
2022/09/25 11:24:31;;;;;;;4.43;2.95;;;16.00;81.80;;;;;;5057918;28;20797;-78
2022/09/25 11:27:25;;;;;;;4.53;3.33;;;16.00;81.50;;;;;;5073859;28;20036;-76
2022/09/25 11:30:09;;;;;;;3.80;3.17;;;16.00;81.50;;;;;;5060124;28;20047;-77
2022/09/25 11:33:05;;;;;;;3.38;3.08;;;16.10;81.30;;;;;;5059365;28;20149;-77
2022/09/25 11:35:48;;;;;;;3.63;3.17;;;16.10;81.20;;;;;;5072510;28;20038;-77
2022/09/25 11:41:10;;;;;;;3.55;2.70;;;16.10;81.10;;;;;;5059244;28;20296;-78
2022/09/25 11:41:21;;;;;;;3.65;3.28;;;16.20;80.90;;;;;;5060417;28;20494;-77
2022/09/25 11:43:54;;;;;;;4.75;3.40;;;16.20;80.80;;;;;;5043682;28;20032;-77
2022/09/25 11:46:50;;;;;;;4.70;3.13;;;16.20;80.50;;;;;;5091893;28;20086;-77
2022/09/25 11:49:23;;;;;;;4.93;2.90;;;16.30;80.60;;;;;;5053921;28;20036;-76
2022/09/25 11:52:04;;;;;;;2.97;2.67;;;16.30;80.40;;;;;;5075640;28;20051;-77
2022/09/25 11:54:39;;;;;;;3.83;3.40;;;16.30;80.20;;;;;;5072435;28;20029;-76
2022/09/25 11:57:10;;;;;;;3.83;3.13;;;16.30;80.10;;;;;;5072723;28;20519;-76
2022/09/25 11:59:45;;;;;;;5.28;3.40;;;16.40;80.10;;;;;;5073558;28;22203;-76
2022/09/25 12:02:31;;;;;;;4.47;3.40;;;16.40;80.00;;;;;;5059428;28;20029;-77
2022/09/25 12:05:21;;;;;;;4.03;3.63;;;16.40;79.90;;;;;;5072110;28;20044;-77
2022/09/25 12:08:17;;;;;;;4.22;3.63;;;16.40;79.80;;;;;;5071897;28;20033;-76
2022/09/25 12:10:48;;;;;;;3.75;3.13;;;16.40;79.80;;;;;;5070545;28;20081;-76
2022/09/25 12:13:25;;;;;;;3.50;2.92;;;16.40;79.60;;;;;;5064847;28;20089;-78
2022/09/25 12:16:09;;;;;;;5.95;3.40;;;16.40;79.60;;;;;;5049098;28;20040;-77
2022/09/25 12:18:39;;;;;;;3.05;2.30;;;16.50;79.60;;;;;;5056819;28;20048;-78
2022/09/25 12:21:09;;;;;;;3.88;2.88;;;16.50;79.50;;;;;;5062553;28;20064;-77
2022/09/25 12:23:51;;;;;;;2.85;2.30;;;16.50;79.40;;;;;;5049340;28;20554;-76
2022/09/25 12:26:25;;;;;;;3.38;3.00;;;16.50;79.30;;;;;;5071847;28;21265;-77
2022/09/25 12:28:54;;;;;;;2.50;2.15;;;16.50;79.20;;;;;;5074902;28;20032;-77
2022/09/25 12:31:38;;;;;;;2.80;2.47;;;16.50;79.20;;;;;;5072039;28;20081;-77
2022/09/25 12:34:41;;;;;;;2.72;2.17;;;16.60;79.10;;;;;;5072411;28;20036;-77
2022/09/25 12:37:11;;;;;;;3.05;2.70;;;16.60;79.00;;;;;;5028101;28;20094;-77
2022/09/25 12:39:40;;;;;;;2.88;2.47;;;16.60;78.90;;;;;;5076233;28;20039;-78
2022/09/25 12:42:10;;;;;;;3.40;2.50;;;16.60;78.90;;;;;;5058584;28;20051;-77
2022/09/25 12:44:42;;;;;;;2.45;2.25;;;16.60;78.90;;;;;;5057646;28;20086;-78
2022/09/25 12:47:32;;;;;;;2.50;2.30;;;16.60;78.90;;;;;;5075974;28;20040;-77
2022/09/25 12:50:09;;;;;;;2.50;2.13;;;16.70;78.80;;;;;;5039783;28;20123;-77
2022/09/25 12:52:40;;;;;;;3.10;2.60;;;16.70;78.70;;;;;;5055461;28;20036;-77
2022/09/25 12:55:12;;;;;;;4.03;2.88;;;16.70;78.60;;;;;;5075727;28;20050;-77
2022/09/25 12:57:46;;;;;;;;;;;16.70;78.50;;;;;;5057113;28;20595;-77
2022/09/25 13:00:16;;;;;;;4.40;3.40;;;16.70;78.40;;;;;;5073808;28;19946;-77
2022/09/25 13:02:45;;;;;;;3.72;3.25;;;16.70;78.30;;;;;;5055402;28;20716;-78
2022/09/25 13:05:19;;;;;;;3.30;3.00;;;16.70;78.40;;;;;;5069682;28;20102;-78
2022/09/25 13:07:53;;;;;;;3.67;3.00;;;16.70;78.40;;;;;;5042839;28;20065;-77
2022/09/25 13:10:39;;;;;;;5.25;3.55;;;16.80;78.40;;;;;;5060672;28;20047;-77
2022/09/25 13:13:08;;;;;;;4.60;4.15;;;16.80;78.60;;;;;;5060202;28;20040;-77
2022/09/25 13:15:36;;;;;;;13.30;9.65;;;16.80;78.40;;;;;;5051346;28;20672;-77
2022/09/25 13:18:02;;;;;;;42.95;28.60;;;16.80;78.60;;;;;;5049409;28;20489;-76